sensor_id;sensor_type;location;lat;lon;timestamp;P1;durP1;ratioP1;P2;durP2;ratioP2
64854;SDS011;51321;50.428;8.378;2024-01-30T00:01:51;12.63;;;9.45;;
64854;SDS011;51321;50.428;8.378;2024-01-30T00:04:32;14.50;;;8.80;;
64854;SDS011;51321;50.428;8.378;2024-01-30T00:07:12;12.48;;;8.93;;
64854;SDS011;51321;50.428;8.378;2024-01-30T00:09:54;21.52;;;9.60;;
64854;SDS011;51321;50.428;8.378;2024-01-30T00:12:35;12.25;;;8.55;;
64854;SDS011;51321;50.428;8.378;2024-01-30T00:15:15;13.02;;;8.77;;
64854;SDS011;51321;50.428;8.378;2024-01-30T00:17:57;12.98;;;8.10;;
64854;SDS011;51321;50.428;8.378;2024-01-30T00:20:38;11.15;;;8.40;;
64854;SDS011;51321;50.428;8.378;2024-01-30T00:23:18;11.50;;;7.75;;
64854;SDS011;51321;50.428;8.378;2024-01-30T00:26:00;11.95;;;8.32;;
64854;SDS011;51321;50.428;8.378;2024-01-30T00:28:40;11.55;;;8.43;;
64854;SDS011;51321;50.428;8.378;2024-01-30T00:31:21;12.65;;;8.13;;
64854;SDS011;51321;50.428;8.378;2024-01-30T00:34:01;12.93;;;8.23;;
64854;SDS011;51321;50.428;8.378;2024-01-30T00:36:42;12.05;;;8.55;;
64854;SDS011;51321;50.428;8.378;2024-01-30T00:39:23;11.88;;;8.73;;
64854;SDS011;51321;50.428;8.378;2024-01-30T00:42:05;12.15;;;9.55;;
64854;SDS011;51321;50.428;8.378;2024-01-30T00:44:45;10.65;;;8.35;;
64854;SDS011;51321;50.428;8.378;2024-01-30T00:47:26;13.75;;;8.77;;
64854;SDS011;51321;50.428;8.378;2024-01-30T00:50:08;15.25;;;9.27;;
64854;SDS011;51321;50.428;8.378;2024-01-30T00:52:49;14.85;;;9.15;;
64854;SDS011;51321;50.428;8.378;2024-01-30T00:55:29;12.32;;;9.40;;
64854;SDS011;51321;50.428;8.378;2024-01-30T00:58:11;15.18;;;9.13;;
64854;SDS011;51321;50.428;8.378;2024-01-30T01:00:52;13.10;;;9.80;;
64854;SDS011;51321;50.428;8.378;2024-01-30T01:03:32;12.00;;;8.65;;
64854;SDS011;51321;50.428;8.378;2024-01-30T01:06:13;12.57;;;8.63;;
64854;SDS011;51321;50.428;8.378;2024-01-30T01:08:53;14.90;;;8.52;;
64854;SDS011;51321;50.428;8.378;2024-01-30T01:11:33;13.52;;;8.43;;
64854;SDS011;51321;50.428;8.378;2024-01-30T01:14:16;13.07;;;9.77;;
64854;SDS011;51321;50.428;8.378;2024-01-30T01:16:56;15.27;;;10.13;;
64854;SDS011;51321;50.428;8.378;2024-01-30T01:19:37;12.68;;;8.90;;
64854;SDS011;51321;50.428;8.378;2024-01-30T01:22:17;14.05;;;8.93;;
64854;SDS011;51321;50.428;8.378;2024-01-30T01:24:58;15.18;;;9.20;;
64854;SDS011;51321;50.428;8.378;2024-01-30T01:27:39;14.90;;;9.95;;
64854;SDS011;51321;50.428;8.378;2024-01-30T01:30:22;16.67;;;9.73;;
64854;SDS011;51321;50.428;8.378;2024-01-30T01:33:04;11.63;;;8.88;;
64854;SDS011;51321;50.428;8.378;2024-01-30T01:35:45;10.80;;;8.65;;
64854;SDS011;51321;50.428;8.378;2024-01-30T01:38:26;10.98;;;8.20;;
64854;SDS011;51321;50.428;8.378;2024-01-30T01:41:06;14.35;;;9.07;;
64854;SDS011;51321;50.428;8.378;2024-01-30T01:43:47;12.73;;;9.18;;
64854;SDS011;51321;50.428;8.378;2024-01-30T01:46:30;11.18;;;8.55;;
64854;SDS011;51321;50.428;8.378;2024-01-30T01:49:12;13.48;;;9.52;;
64854;SDS011;51321;50.428;8.378;2024-01-30T01:51:54;18.90;;;10.38;;
64854;SDS011;51321;50.428;8.378;2024-01-30T01:54:36;19.15;;;9.82;;
64854;SDS011;51321;50.428;8.378;2024-01-30T01:57:16;12.85;;;9.02;;
64854;SDS011;51321;50.428;8.378;2024-01-30T01:59:57;12.23;;;8.90;;
64854;SDS011;51321;50.428;8.378;2024-01-30T02:02:39;15.38;;;10.07;;
64854;SDS011;51321;50.428;8.378;2024-01-30T02:05:20;13.98;;;9.85;;
64854;SDS011;51321;50.428;8.378;2024-01-30T02:08:01;16.63;;;10.02;;
64854;SDS011;51321;50.428;8.378;2024-01-30T02:10:42;11.70;;;8.48;;
64854;SDS011;51321;50.428;8.378;2024-01-30T02:13:23;14.73;;;8.75;;
64854;SDS011;51321;50.428;8.378;2024-01-30T02:16:04;12.32;;;9.00;;
64854;SDS011;51321;50.428;8.378;2024-01-30T02:18:46;11.02;;;8.38;;
64854;SDS011;51321;50.428;8.378;2024-01-30T02:21:28;12.73;;;9.37;;
64854;SDS011;51321;50.428;8.378;2024-01-30T02:24:08;12.82;;;8.98;;
64854;SDS011;51321;50.428;8.378;2024-01-30T02:26:48;12.07;;;8.00;;
64854;SDS011;51321;50.428;8.378;2024-01-30T02:29:29;11.75;;;7.97;;
64854;SDS011;51321;50.428;8.378;2024-01-30T02:32:09;11.13;;;7.75;;
64854;SDS011;51321;50.428;8.378;2024-01-30T02:34:50;12.30;;;8.95;;
64854;SDS011;51321;50.428;8.378;2024-01-30T02:37:35;13.45;;;9.13;;
64854;SDS011;51321;50.428;8.378;2024-01-30T02:40:16;13.05;;;8.63;;
64854;SDS011;51321;50.428;8.378;2024-01-30T02:42:57;11.20;;;8.70;;
64854;SDS011;51321;50.428;8.378;2024-01-30T02:45:39;13.88;;;9.48;;
64854;SDS011;51321;50.428;8.378;2024-01-30T02:48:22;13.80;;;9.57;;
64854;SDS011;51321;50.428;8.378;2024-01-30T02:51:10;18.15;;;10.73;;
64854;SDS011;51321;50.428;8.378;2024-01-30T02:53:56;20.55;;;12.10;;
64854;SDS011;51321;50.428;8.378;2024-01-30T02:56:37;16.77;;;10.70;;
64854;SDS011;51321;50.428;8.378;2024-01-30T02:59:18;17.77;;;10.23;;
64854;SDS011;51321;50.428;8.378;2024-01-30T03:01:59;15.18;;;10.60;;
64854;SDS011;51321;50.428;8.378;2024-01-30T03:04:40;12.82;;;8.95;;
64854;SDS011;51321;50.428;8.378;2024-01-30T03:07:21;15.10;;;9.25;;
64854;SDS011;51321;50.428;8.378;2024-01-30T03:10:05;15.30;;;9.95;;
64854;SDS011;51321;50.428;8.378;2024-01-30T03:12:48;13.70;;;9.52;;
64854;SDS011;51321;50.428;8.378;2024-01-30T03:15:30;17.67;;;10.32;;
64854;SDS011;51321;50.428;8.378;2024-01-30T03:18:11;13.23;;;10.52;;
64854;SDS011;51321;50.428;8.378;2024-01-30T03:20:52;13.97;;;9.47;;
64854;SDS011;51321;50.428;8.378;2024-01-30T03:23:33;14.07;;;10.38;;
64854;SDS011;51321;50.428;8.378;2024-01-30T03:26:15;12.80;;;9.88;;
64854;SDS011;51321;50.428;8.378;2024-01-30T03:28:57;16.20;;;9.85;;
64854;SDS011;51321;50.428;8.378;2024-01-30T03:31:38;13.23;;;9.90;;
64854;SDS011;51321;50.428;8.378;2024-01-30T03:34:18;15.18;;;10.88;;
64854;SDS011;51321;50.428;8.378;2024-01-30T03:37:00;15.90;;;10.55;;
64854;SDS011;51321;50.428;8.378;2024-01-30T03:39:41;13.15;;;9.25;;
64854;SDS011;51321;50.428;8.378;2024-01-30T03:42:23;13.93;;;10.38;;
64854;SDS011;51321;50.428;8.378;2024-01-30T03:45:04;15.40;;;10.27;;
64854;SDS011;51321;50.428;8.378;2024-01-30T03:47:45;13.50;;;10.18;;
64854;SDS011;51321;50.428;8.378;2024-01-30T03:50:25;14.63;;;9.88;;
64854;SDS011;51321;50.428;8.378;2024-01-30T03:53:07;14.68;;;10.18;;
64854;SDS011;51321;50.428;8.378;2024-01-30T03:55:47;16.52;;;10.63;;
64854;SDS011;51321;50.428;8.378;2024-01-30T03:58:29;17.48;;;11.18;;
64854;SDS011;51321;50.428;8.378;2024-01-30T04:01:13;17.42;;;11.00;;
64854;SDS011;51321;50.428;8.378;2024-01-30T04:03:54;17.65;;;10.10;;
64854;SDS011;51321;50.428;8.378;2024-01-30T04:06:37;14.40;;;9.77;;
64854;SDS011;51321;50.428;8.378;2024-01-30T04:09:19;12.95;;;10.02;;
64854;SDS011;51321;50.428;8.378;2024-01-30T04:12:02;14.27;;;8.70;;
64854;SDS011;51321;50.428;8.378;2024-01-30T04:14:46;12.38;;;8.80;;
64854;SDS011;51321;50.428;8.378;2024-01-30T04:17:31;14.15;;;9.30;;
64854;SDS011;51321;50.428;8.378;2024-01-30T04:20:13;14.27;;;9.40;;
64854;SDS011;51321;50.428;8.378;2024-01-30T04:22:58;13.75;;;9.38;;
64854;SDS011;51321;50.428;8.378;2024-01-30T04:25:38;18.10;;;10.23;;
64854;SDS011;51321;50.428;8.378;2024-01-30T04:28:21;14.15;;;10.18;;
64854;SDS011;51321;50.428;8.378;2024-01-30T04:31:03;15.45;;;9.35;;
64854;SDS011;51321;50.428;8.378;2024-01-30T04:33:44;18.45;;;10.38;;
64854;SDS011;51321;50.428;8.378;2024-01-30T04:36:24;18.40;;;10.90;;
64854;SDS011;51321;50.428;8.378;2024-01-30T04:39:05;12.52;;;9.57;;
64854;SDS011;51321;50.428;8.378;2024-01-30T04:41:48;17.40;;;11.18;;
64854;SDS011;51321;50.428;8.378;2024-01-30T04:44:33;11.45;;;8.80;;
64854;SDS011;51321;50.428;8.378;2024-01-30T04:47:23;12.75;;;8.20;;
64854;SDS011;51321;50.428;8.378;2024-01-30T04:50:07;11.25;;;8.60;;
64854;SDS011;51321;50.428;8.378;2024-01-30T04:52:49;12.10;;;7.97;;
64854;SDS011;51321;50.428;8.378;2024-01-30T04:55:30;12.63;;;8.57;;
64854;SDS011;51321;50.428;8.378;2024-01-30T04:58:12;12.13;;;7.65;;
64854;SDS011;51321;50.428;8.378;2024-01-30T05:00:53;11.57;;;7.53;;
64854;SDS011;51321;50.428;8.378;2024-01-30T05:03:35;12.07;;;8.23;;
64854;SDS011;51321;50.428;8.378;2024-01-30T05:06:23;13.63;;;8.02;;
64854;SDS011;51321;50.428;8.378;2024-01-30T05:09:05;12.13;;;8.10;;
64854;SDS011;51321;50.428;8.378;2024-01-30T05:11:48;12.70;;;8.38;;
64854;SDS011;51321;50.428;8.378;2024-01-30T05:14:28;14.48;;;8.50;;
64854;SDS011;51321;50.428;8.378;2024-01-30T05:17:09;11.07;;;7.68;;
64854;SDS011;51321;50.428;8.378;2024-01-30T05:19:52;13.65;;;8.82;;
64854;SDS011;51321;50.428;8.378;2024-01-30T05:22:34;15.73;;;8.05;;
64854;SDS011;51321;50.428;8.378;2024-01-30T05:25:15;14.88;;;7.82;;
64854;SDS011;51321;50.428;8.378;2024-01-30T05:27:55;12.93;;;9.13;;
64854;SDS011;51321;50.428;8.378;2024-01-30T05:30:36;13.68;;;9.55;;
64854;SDS011;51321;50.428;8.378;2024-01-30T05:33:18;12.15;;;8.95;;
64854;SDS011;51321;50.428;8.378;2024-01-30T05:36:00;14.10;;;10.60;;
64854;SDS011;51321;50.428;8.378;2024-01-30T05:38:41;16.40;;;10.30;;
64854;SDS011;51321;50.428;8.378;2024-01-30T05:41:22;11.95;;;8.73;;
64854;SDS011;51321;50.428;8.378;2024-01-30T05:44:03;13.20;;;8.63;;
64854;SDS011;51321;50.428;8.378;2024-01-30T05:46:43;12.07;;;8.07;;
64854;SDS011;51321;50.428;8.378;2024-01-30T05:49:25;11.70;;;8.65;;
64854;SDS011;51321;50.428;8.378;2024-01-30T05:52:08;14.50;;;9.02;;
64854;SDS011;51321;50.428;8.378;2024-01-30T05:57:30;12.23;;;8.48;;
64854;SDS011;51321;50.428;8.378;2024-01-30T06:00:11;19.27;;;8.57;;
64854;SDS011;51321;50.428;8.378;2024-01-30T06:02:56;16.73;;;8.30;;
64854;SDS011;51321;50.428;8.378;2024-01-30T06:05:38;11.80;;;8.18;;
64854;SDS011;51321;50.428;8.378;2024-01-30T06:08:21;14.95;;;8.93;;
64854;SDS011;51321;50.428;8.378;2024-01-30T06:11:01;13.55;;;8.25;;
64854;SDS011;51321;50.428;8.378;2024-01-30T06:13:42;12.80;;;8.05;;
64854;SDS011;51321;50.428;8.378;2024-01-30T06:16:23;13.60;;;8.60;;
64854;SDS011;51321;50.428;8.378;2024-01-30T06:19:03;10.27;;;7.43;;
64854;SDS011;51321;50.428;8.378;2024-01-30T06:21:44;12.85;;;8.27;;
64854;SDS011;51321;50.428;8.378;2024-01-30T06:24:28;16.95;;;9.18;;
64854;SDS011;51321;50.428;8.378;2024-01-30T06:27:09;16.30;;;8.98;;
64854;SDS011;51321;50.428;8.378;2024-01-30T06:29:52;14.25;;;9.07;;
64854;SDS011;51321;50.428;8.378;2024-01-30T06:32:32;14.63;;;9.82;;
64854;SDS011;51321;50.428;8.378;2024-01-30T06:35:13;14.85;;;10.02;;
64854;SDS011;51321;50.428;8.378;2024-01-30T06:37:56;18.17;;;9.05;;
64854;SDS011;51321;50.428;8.378;2024-01-30T06:40:39;15.18;;;9.30;;
64854;SDS011;51321;50.428;8.378;2024-01-30T06:43:19;15.30;;;10.00;;
64854;SDS011;51321;50.428;8.378;2024-01-30T06:46:01;15.15;;;9.75;;
64854;SDS011;51321;50.428;8.378;2024-01-30T06:48:42;12.65;;;8.70;;
64854;SDS011;51321;50.428;8.378;2024-01-30T06:51:23;12.57;;;9.82;;
64854;SDS011;51321;50.428;8.378;2024-01-30T06:54:05;13.88;;;8.27;;
64854;SDS011;51321;50.428;8.378;2024-01-30T06:56:47;13.60;;;8.57;;
64854;SDS011;51321;50.428;8.378;2024-01-30T06:59:27;10.93;;;7.78;;
64854;SDS011;51321;50.428;8.378;2024-01-30T07:02:10;12.43;;;7.82;;
64854;SDS011;51321;50.428;8.378;2024-01-30T07:04:50;13.98;;;8.50;;
64854;SDS011;51321;50.428;8.378;2024-01-30T07:07:31;12.15;;;8.05;;
64854;SDS011;51321;50.428;8.378;2024-01-30T07:10:12;15.25;;;8.63;;
64854;SDS011;51321;50.428;8.378;2024-01-30T07:12:56;13.90;;;9.80;;
64854;SDS011;51321;50.428;8.378;2024-01-30T07:15:38;13.68;;;9.20;;
64854;SDS011;51321;50.428;8.378;2024-01-30T07:18:19;11.95;;;8.15;;
64854;SDS011;51321;50.428;8.378;2024-01-30T07:20:59;13.85;;;9.02;;
64854;SDS011;51321;50.428;8.378;2024-01-30T07:23:40;16.73;;;10.63;;
64854;SDS011;51321;50.428;8.378;2024-01-30T07:26:29;16.45;;;9.20;;
64854;SDS011;51321;50.428;8.378;2024-01-30T07:29:11;13.52;;;9.77;;
64854;SDS011;51321;50.428;8.378;2024-01-30T07:31:52;13.80;;;9.48;;
64854;SDS011;51321;50.428;8.378;2024-01-30T07:34:33;13.63;;;9.10;;
64854;SDS011;51321;50.428;8.378;2024-01-30T07:37:15;17.85;;;9.77;;
64854;SDS011;51321;50.428;8.378;2024-01-30T07:39:56;13.30;;;9.65;;
64854;SDS011;51321;50.428;8.378;2024-01-30T07:42:38;14.50;;;9.52;;
64854;SDS011;51321;50.428;8.378;2024-01-30T07:45:22;16.13;;;8.68;;
64854;SDS011;51321;50.428;8.378;2024-01-30T07:48:04;15.50;;;10.80;;
64854;SDS011;51321;50.428;8.378;2024-01-30T07:50:45;16.52;;;11.15;;
64854;SDS011;51321;50.428;8.378;2024-01-30T07:53:26;19.48;;;12.63;;
64854;SDS011;51321;50.428;8.378;2024-01-30T07:56:15;23.80;;;15.90;;
64854;SDS011;51321;50.428;8.378;2024-01-30T07:58:57;28.20;;;18.40;;
64854;SDS011;51321;50.428;8.378;2024-01-30T08:01:41;20.15;;;14.50;;
64854;SDS011;51321;50.428;8.378;2024-01-30T08:04:22;20.73;;;14.18;;
64854;SDS011;51321;50.428;8.378;2024-01-30T08:07:04;23.50;;;15.45;;
64854;SDS011;51321;50.428;8.378;2024-01-30T08:09:45;24.52;;;16.63;;
64854;SDS011;51321;50.428;8.378;2024-01-30T08:12:28;25.10;;;17.50;;
64854;SDS011;51321;50.428;8.378;2024-01-30T08:15:09;30.92;;;18.55;;
64854;SDS011;51321;50.428;8.378;2024-01-30T08:17:54;24.38;;;16.13;;
64854;SDS011;51321;50.428;8.378;2024-01-30T08:20:37;25.90;;;16.10;;
64854;SDS011;51321;50.428;8.378;2024-01-30T08:23:17;28.48;;;17.60;;
64854;SDS011;51321;50.428;8.378;2024-01-30T08:25:58;26.35;;;17.40;;
64854;SDS011;51321;50.428;8.378;2024-01-30T08:28:39;30.70;;;20.80;;
64854;SDS011;51321;50.428;8.378;2024-01-30T08:31:20;42.28;;;24.95;;
64854;SDS011;51321;50.428;8.378;2024-01-30T08:34:02;35.67;;;19.15;;
64854;SDS011;51321;50.428;8.378;2024-01-30T08:36:43;26.98;;;17.60;;
64854;SDS011;51321;50.428;8.378;2024-01-30T08:39:23;31.08;;;20.48;;
64854;SDS011;51321;50.428;8.378;2024-01-30T08:42:04;35.83;;;23.88;;
64854;SDS011;51321;50.428;8.378;2024-01-30T08:44:46;33.35;;;21.63;;
64854;SDS011;51321;50.428;8.378;2024-01-30T08:47:28;28.15;;;19.85;;
64854;SDS011;51321;50.428;8.378;2024-01-30T08:50:10;35.67;;;21.88;;
64854;SDS011;51321;50.428;8.378;2024-01-30T08:52:51;37.70;;;23.65;;
64854;SDS011;51321;50.428;8.378;2024-01-30T08:55:32;33.13;;;20.00;;
64854;SDS011;51321;50.428;8.378;2024-01-30T08:58:14;31.52;;;19.92;;
64854;SDS011;51321;50.428;8.378;2024-01-30T09:00:57;28.08;;;18.45;;
64854;SDS011;51321;50.428;8.378;2024-01-30T09:03:42;35.28;;;21.63;;
64854;SDS011;51321;50.428;8.378;2024-01-30T09:06:26;34.45;;;21.08;;
64854;SDS011;51321;50.428;8.378;2024-01-30T09:09:07;27.63;;;17.27;;
64854;SDS011;51321;50.428;8.378;2024-01-30T09:11:50;27.27;;;18.50;;
64854;SDS011;51321;50.428;8.378;2024-01-30T09:14:30;29.63;;;19.02;;
64854;SDS011;51321;50.428;8.378;2024-01-30T09:17:11;29.35;;;19.23;;
64854;SDS011;51321;50.428;8.378;2024-01-30T09:19:52;34.83;;;22.58;;
64854;SDS011;51321;50.428;8.378;2024-01-30T09:22:34;26.38;;;18.90;;
64854;SDS011;51321;50.428;8.378;2024-01-30T09:25:15;26.35;;;19.17;;
64854;SDS011;51321;50.428;8.378;2024-01-30T09:30:38;27.67;;;17.35;;
64854;SDS011;51321;50.428;8.378;2024-01-30T09:33:19;25.92;;;14.80;;
64854;SDS011;51321;50.428;8.378;2024-01-30T09:36:00;20.92;;;15.50;;
64854;SDS011;51321;50.428;8.378;2024-01-30T09:38:42;28.55;;;18.55;;
64854;SDS011;51321;50.428;8.378;2024-01-30T09:41:23;27.00;;;19.17;;
64854;SDS011;51321;50.428;8.378;2024-01-30T09:44:05;26.67;;;19.52;;
64854;SDS011;51321;50.428;8.378;2024-01-30T09:46:47;27.75;;;18.00;;
64854;SDS011;51321;50.428;8.378;2024-01-30T09:49:30;21.92;;;16.67;;
64854;SDS011;51321;50.428;8.378;2024-01-30T09:52:13;21.85;;;15.60;;
64854;SDS011;51321;50.428;8.378;2024-01-30T09:54:57;20.65;;;14.45;;
64854;SDS011;51321;50.428;8.378;2024-01-30T09:57:41;21.30;;;15.18;;
64854;SDS011;51321;50.428;8.378;2024-01-30T10:00:21;18.37;;;13.30;;
64854;SDS011;51321;50.428;8.378;2024-01-30T10:03:05;21.15;;;14.32;;
64854;SDS011;51321;50.428;8.378;2024-01-30T10:05:48;19.95;;;15.10;;
64854;SDS011;51321;50.428;8.378;2024-01-30T10:08:33;21.88;;;14.43;;
64854;SDS011;51321;50.428;8.378;2024-01-30T10:11:15;19.00;;;14.90;;
64854;SDS011;51321;50.428;8.378;2024-01-30T10:13:56;21.42;;;14.65;;
64854;SDS011;51321;50.428;8.378;2024-01-30T10:16:37;21.33;;;15.07;;
64854;SDS011;51321;50.428;8.378;2024-01-30T10:22:00;24.80;;;15.65;;
64854;SDS011;51321;50.428;8.378;2024-01-30T10:24:41;20.30;;;15.68;;
64854;SDS011;51321;50.428;8.378;2024-01-30T10:27:25;21.65;;;16.15;;
64854;SDS011;51321;50.428;8.378;2024-01-30T10:30:08;20.13;;;14.63;;
64854;SDS011;51321;50.428;8.378;2024-01-30T10:32:50;18.52;;;14.68;;
64854;SDS011;51321;50.428;8.378;2024-01-30T10:35:31;28.17;;;18.58;;
64854;SDS011;51321;50.428;8.378;2024-01-30T10:38:12;21.20;;;15.85;;
64854;SDS011;51321;50.428;8.378;2024-01-30T10:40:56;30.55;;;20.73;;
64854;SDS011;51321;50.428;8.378;2024-01-30T10:43:41;24.20;;;16.20;;
64854;SDS011;51321;50.428;8.378;2024-01-30T10:46:27;21.90;;;16.25;;
64854;SDS011;51321;50.428;8.378;2024-01-30T10:49:13;22.85;;;15.98;;
64854;SDS011;51321;50.428;8.378;2024-01-30T10:51:54;21.10;;;15.00;;
64854;SDS011;51321;50.428;8.378;2024-01-30T10:54:37;23.00;;;17.33;;
64854;SDS011;51321;50.428;8.378;2024-01-30T10:57:18;26.80;;;18.17;;
64854;SDS011;51321;50.428;8.378;2024-01-30T11:00:06;33.05;;;21.27;;
64854;SDS011;51321;50.428;8.378;2024-01-30T11:02:49;39.25;;;21.60;;
64854;SDS011;51321;50.428;8.378;2024-01-30T11:05:32;42.33;;;23.60;;
64854;SDS011;51321;50.428;8.378;2024-01-30T11:08:13;36.85;;;20.30;;
64854;SDS011;51321;50.428;8.378;2024-01-30T11:10:55;37.47;;;19.75;;
64854;SDS011;51321;50.428;8.378;2024-01-30T11:13:37;35.78;;;18.90;;
64854;SDS011;51321;50.428;8.378;2024-01-30T11:16:19;27.63;;;18.83;;
64854;SDS011;51321;50.428;8.378;2024-01-30T11:19:00;30.73;;;18.60;;
64854;SDS011;51321;50.428;8.378;2024-01-30T11:21:41;27.42;;;17.90;;
64854;SDS011;51321;50.428;8.378;2024-01-30T11:24:22;29.15;;;16.90;;
64854;SDS011;51321;50.428;8.378;2024-01-30T11:29:49;24.02;;;15.85;;
64854;SDS011;51321;50.428;8.378;2024-01-30T11:32:31;22.55;;;15.10;;
64854;SDS011;51321;50.428;8.378;2024-01-30T11:35:12;24.73;;;15.70;;
64854;SDS011;51321;50.428;8.378;2024-01-30T11:37:55;26.60;;;15.65;;
64854;SDS011;51321;50.428;8.378;2024-01-30T11:40:38;23.02;;;13.82;;
64854;SDS011;51321;50.428;8.378;2024-01-30T11:43:21;21.15;;;15.45;;
64854;SDS011;51321;50.428;8.378;2024-01-30T11:46:02;19.92;;;13.77;;
64854;SDS011;51321;50.428;8.378;2024-01-30T11:48:44;21.13;;;13.60;;
64854;SDS011;51321;50.428;8.378;2024-01-30T11:51:25;17.58;;;12.23;;
64854;SDS011;51321;50.428;8.378;2024-01-30T11:54:06;17.92;;;12.75;;
64854;SDS011;51321;50.428;8.378;2024-01-30T11:56:47;15.50;;;12.93;;
64854;SDS011;51321;50.428;8.378;2024-01-30T11:59:27;18.17;;;11.88;;
64854;SDS011;51321;50.428;8.378;2024-01-30T12:02:08;18.88;;;12.68;;
64854;SDS011;51321;50.428;8.378;2024-01-30T12:04:56;15.40;;;11.55;;
64854;SDS011;51321;50.428;8.378;2024-01-30T12:07:38;19.88;;;13.43;;
64854;SDS011;51321;50.428;8.378;2024-01-30T12:10:18;17.55;;;12.05;;
64854;SDS011;51321;50.428;8.378;2024-01-30T12:15:42;21.30;;;15.88;;
64854;SDS011;51321;50.428;8.378;2024-01-30T12:18:24;20.27;;;14.68;;
64854;SDS011;51321;50.428;8.378;2024-01-30T12:21:07;21.73;;;13.93;;
64854;SDS011;51321;50.428;8.378;2024-01-30T12:23:48;19.30;;;14.23;;
64854;SDS011;51321;50.428;8.378;2024-01-30T12:26:29;23.00;;;16.50;;
64854;SDS011;51321;50.428;8.378;2024-01-30T12:29:10;23.23;;;15.65;;
64854;SDS011;51321;50.428;8.378;2024-01-30T12:31:52;22.95;;;16.23;;
64854;SDS011;51321;50.428;8.378;2024-01-30T12:34:33;30.27;;;18.65;;
64854;SDS011;51321;50.428;8.378;2024-01-30T12:37:18;21.38;;;15.48;;
64854;SDS011;51321;50.428;8.378;2024-01-30T12:40:01;19.83;;;14.48;;
64854;SDS011;51321;50.428;8.378;2024-01-30T12:42:42;15.90;;;11.77;;
64854;SDS011;51321;50.428;8.378;2024-01-30T12:45:27;14.90;;;11.90;;
64854;SDS011;51321;50.428;8.378;2024-01-30T12:48:08;19.45;;;13.55;;
64854;SDS011;51321;50.428;8.378;2024-01-30T12:50:49;20.15;;;13.70;;
64854;SDS011;51321;50.428;8.378;2024-01-30T12:53:32;22.75;;;14.18;;
64854;SDS011;51321;50.428;8.378;2024-01-30T12:56:13;26.70;;;16.73;;
64854;SDS011;51321;50.428;8.378;2024-01-30T12:58:54;22.92;;;16.00;;
64854;SDS011;51321;50.428;8.378;2024-01-30T13:01:35;27.60;;;18.35;;
64854;SDS011;51321;50.428;8.378;2024-01-30T13:04:16;24.83;;;15.38;;
64854;SDS011;51321;50.428;8.378;2024-01-30T13:06:57;21.95;;;15.68;;
64854;SDS011;51321;50.428;8.378;2024-01-30T13:09:41;21.88;;;14.98;;
64854;SDS011;51321;50.428;8.378;2024-01-30T13:12:22;22.00;;;16.02;;
64854;SDS011;51321;50.428;8.378;2024-01-30T13:15:02;17.60;;;14.00;;
64854;SDS011;51321;50.428;8.378;2024-01-30T13:17:44;18.80;;;13.32;;
64854;SDS011;51321;50.428;8.378;2024-01-30T13:23:07;16.70;;;13.32;;
64854;SDS011;51321;50.428;8.378;2024-01-30T13:25:49;19.27;;;13.40;;
64854;SDS011;51321;50.428;8.378;2024-01-30T13:28:32;21.42;;;14.68;;
64854;SDS011;51321;50.428;8.378;2024-01-30T13:31:13;16.30;;;12.98;;
64854;SDS011;51321;50.428;8.378;2024-01-30T13:33:55;16.98;;;13.32;;
64854;SDS011;51321;50.428;8.378;2024-01-30T13:36:36;20.13;;;13.63;;
64854;SDS011;51321;50.428;8.378;2024-01-30T13:39:19;18.67;;;12.63;;
64854;SDS011;51321;50.428;8.378;2024-01-30T13:42:02;17.77;;;12.55;;
64854;SDS011;51321;50.428;8.378;2024-01-30T13:44:43;17.40;;;13.15;;
64854;SDS011;51321;50.428;8.378;2024-01-30T13:47:24;19.95;;;14.13;;
64854;SDS011;51321;50.428;8.378;2024-01-30T13:50:05;20.13;;;14.00;;
64854;SDS011;51321;50.428;8.378;2024-01-30T13:52:46;19.38;;;14.05;;
64854;SDS011;51321;50.428;8.378;2024-01-30T13:55:28;18.30;;;13.30;;
64854;SDS011;51321;50.428;8.378;2024-01-30T13:58:10;20.87;;;13.63;;
64854;SDS011;51321;50.428;8.378;2024-01-30T14:00:51;18.35;;;11.52;;
64854;SDS011;51321;50.428;8.378;2024-01-30T14:03:32;15.98;;;11.35;;
64854;SDS011;51321;50.428;8.378;2024-01-30T14:06:13;14.50;;;11.13;;
64854;SDS011;51321;50.428;8.378;2024-01-30T14:08:54;19.35;;;13.85;;
64854;SDS011;51321;50.428;8.378;2024-01-30T14:11:35;17.23;;;12.73;;
64854;SDS011;51321;50.428;8.378;2024-01-30T14:14:21;19.80;;;14.20;;
64854;SDS011;51321;50.428;8.378;2024-01-30T14:17:04;23.05;;;14.85;;
64854;SDS011;51321;50.428;8.378;2024-01-30T14:19:47;19.40;;;13.63;;
64854;SDS011;51321;50.428;8.378;2024-01-30T14:22:27;23.38;;;15.55;;
64854;SDS011;51321;50.428;8.378;2024-01-30T14:25:08;23.80;;;16.00;;
64854;SDS011;51321;50.428;8.378;2024-01-30T14:27:49;22.33;;;15.75;;
64854;SDS011;51321;50.428;8.378;2024-01-30T14:30:31;18.88;;;14.82;;
64854;SDS011;51321;50.428;8.378;2024-01-30T14:33:14;24.30;;;15.50;;
64854;SDS011;51321;50.428;8.378;2024-01-30T14:35:55;26.42;;;18.00;;
64854;SDS011;51321;50.428;8.378;2024-01-30T14:38:36;23.17;;;16.45;;
64854;SDS011;51321;50.428;8.378;2024-01-30T14:41:16;21.92;;;15.48;;
64854;SDS011;51321;50.428;8.378;2024-01-30T14:44:02;20.55;;;14.55;;
64854;SDS011;51321;50.428;8.378;2024-01-30T14:46:46;17.97;;;14.53;;
64854;SDS011;51321;50.428;8.378;2024-01-30T14:49:27;17.15;;;12.23;;
64854;SDS011;51321;50.428;8.378;2024-01-30T14:52:07;18.55;;;13.95;;
64854;SDS011;51321;50.428;8.378;2024-01-30T14:54:50;20.17;;;14.68;;
64854;SDS011;51321;50.428;8.378;2024-01-30T14:57:31;22.08;;;13.93;;
64854;SDS011;51321;50.428;8.378;2024-01-30T15:00:14;19.90;;;15.20;;
64854;SDS011;51321;50.428;8.378;2024-01-30T15:02:57;20.25;;;14.65;;
64854;SDS011;51321;50.428;8.378;2024-01-30T15:05:38;28.15;;;16.42;;
64854;SDS011;51321;50.428;8.378;2024-01-30T15:08:19;24.90;;;15.05;;
64854;SDS011;51321;50.428;8.378;2024-01-30T15:10:59;24.27;;;13.82;;
64854;SDS011;51321;50.428;8.378;2024-01-30T15:13:43;19.35;;;13.60;;
64854;SDS011;51321;50.428;8.378;2024-01-30T15:16:24;19.77;;;12.73;;
64854;SDS011;51321;50.428;8.378;2024-01-30T15:21:49;16.20;;;11.48;;
64854;SDS011;51321;50.428;8.378;2024-01-30T15:24:30;17.55;;;12.38;;
64854;SDS011;51321;50.428;8.378;2024-01-30T15:27:10;16.25;;;11.73;;
64854;SDS011;51321;50.428;8.378;2024-01-30T15:29:51;15.52;;;11.93;;
64854;SDS011;51321;50.428;8.378;2024-01-30T15:32:32;18.73;;;12.68;;
64854;SDS011;51321;50.428;8.378;2024-01-30T15:35:14;16.38;;;11.95;;
64854;SDS011;51321;50.428;8.378;2024-01-30T15:37:55;13.68;;;11.40;;
64854;SDS011;51321;50.428;8.378;2024-01-30T15:40:37;27.85;;;17.60;;
64854;SDS011;51321;50.428;8.378;2024-01-30T15:43:18;22.45;;;15.55;;
64854;SDS011;51321;50.428;8.378;2024-01-30T15:45:59;22.38;;;15.40;;
64854;SDS011;51321;50.428;8.378;2024-01-30T15:48:41;20.25;;;15.10;;
64854;SDS011;51321;50.428;8.378;2024-01-30T15:51:23;19.77;;;13.63;;
64854;SDS011;51321;50.428;8.378;2024-01-30T15:54:04;18.45;;;12.90;;
64854;SDS011;51321;50.428;8.378;2024-01-30T15:56:45;21.40;;;13.88;;
64854;SDS011;51321;50.428;8.378;2024-01-30T15:59:26;19.02;;;13.48;;
64854;SDS011;51321;50.428;8.378;2024-01-30T16:02:07;24.30;;;12.65;;
64854;SDS011;51321;50.428;8.378;2024-01-30T16:04:48;21.58;;;12.70;;
64854;SDS011;51321;50.428;8.378;2024-01-30T16:07:30;20.45;;;14.43;;
64854;SDS011;51321;50.428;8.378;2024-01-30T16:10:11;22.73;;;14.70;;